Time;durP1;ratioP1;P1;durP2;ratioP2;P2;SDS_P1;SDS_P2;PMS_P1;PMS_P2;Temp;Humidity;BMP_temperature;BMP_pressure;BME280_temperature;BME280_humidity;BME280_pressure;Samples;Min_cycle;Max_cycle;Signal;HPM_P1;HPM_P2
2022/03/16 00:00:21;;;;;;;;;;;5.10;1.00;;;;;;5073013;28;19912;-81
2022/03/16 00:02:47;;;;;;;;;;;5.10;1.00;;;;;;5069719;28;19916;-81
2022/03/16 00:05:13;;;;;;;;;;;5.10;1.00;;;;;;5077328;28;19912;-82
2022/03/16 00:07:39;;;;;;;;;;;5.10;1.00;;;;;;5065831;28;20361;-82
2022/03/16 00:10:05;;;;;;;;;;;5.10;1.00;;;;;;5067427;28;19955;-82
2022/03/16 00:12:30;;;;;;;;;;;5.00;1.00;;;;;;5072186;28;19920;-82
2022/03/16 00:14:56;;;;;;;;;;;5.00;1.00;;;;;;5069705;28;19923;-82
2022/03/16 00:17:22;;;;;;;;;;;5.00;1.00;;;;;;5073490;28;19913;-82
2022/03/16 00:19:47;;;;;;;;;;;5.00;1.00;;;;;;5076204;28;19920;-82
2022/03/16 00:22:13;;;;;;;;;;;5.00;1.00;;;;;;5069820;28;20490;-82
2022/03/16 00:24:38;;;;;;;;;;;5.00;1.00;;;;;;5071119;28;19912;-81
2022/03/16 00:27:04;;;;;;;;;;;5.00;1.00;;;;;;5071967;28;20313;-82
2022/03/16 00:29:29;;;;;;;;;;;4.90;1.00;;;;;;5065638;28;19943;-81
2022/03/16 00:31:55;;;;;;;;;;;4.90;1.00;;;;;;5074218;28;19912;-81
2022/03/16 00:34:21;;;;;;;;;;;4.90;1.00;;;;;;5075228;28;20291;-82
2022/03/16 00:36:46;;;;;;;;;;;4.90;1.00;;;;;;5074078;28;19947;-81
2022/03/16 00:39:12;;;;;;;;;;;4.90;1.00;;;;;;5067532;28;19967;-82
2022/03/16 00:41:37;;;;;;;;;;;4.90;1.00;;;;;;5065469;28;19964;-81
2022/03/16 00:44:06;;;;;;;;;;;5.00;1.00;;;;;;5067315;28;19961;-82
2022/03/16 00:46:32;;;;;;;;;;;5.00;1.00;;;;;;5071623;28;19920;-81
2022/03/16 00:48:57;;;;;;;;;;;5.00;1.00;;;;;;5069089;28;19912;-81
2022/03/16 00:51:23;;;;;;;;;;;5.00;1.00;;;;;;5071558;28;19913;-81
2022/03/16 00:53:48;;;;;;;;;;;5.00;1.00;;;;;;5071624;28;19913;-81
2022/03/16 00:56:14;;;;;;;;;;;5.00;1.00;;;;;;5071516;28;19916;-82
2022/03/16 00:58:39;;;;;;;;;;;5.00;1.00;;;;;;5070347;28;19922;-81
2022/03/16 01:01:06;;;;;;;;;;;5.00;1.00;;;;;;5072483;28;20380;-82
2022/03/16 01:03:31;;;;;;;;;;;5.00;1.00;;;;;;5069261;28;19993;-82
2022/03/16 01:05:57;;;;;;;;;;;5.00;1.00;;;;;;5071442;28;20369;-81
2022/03/16 01:08:22;;;;;;;;;;;4.90;1.00;;;;;;5070161;28;19913;-82
2022/03/16 01:10:48;;;;;;;;;;;4.90;1.00;;;;;;5067396;28;19919;-81
2022/03/16 01:13:13;;;;;;;;;;;4.90;1.00;;;;;;5064010;28;19935;-82
2022/03/16 01:15:39;;;;;;;;;;;4.90;1.00;;;;;;5082239;28;19912;-82
2022/03/16 01:18:04;;;;;;;;;;;4.90;1.00;;;;;;5071212;28;19912;-81
2022/03/16 01:20:30;;;;;;;;;;;4.80;1.00;;;;;;5071066;28;19916;-80
2022/03/16 01:22:55;;;;;;;;;;;4.80;1.00;;;;;;5067824;28;19931;-81
2022/03/16 01:25:21;;;;;;;;;;;4.80;1.00;;;;;;5074847;28;19927;-82
2022/03/16 01:27:46;;;;;;;;;;;4.80;1.00;;;;;;5061756;28;19913;-82
2022/03/16 01:30:13;;;;;;;;;;;4.80;1.00;;;;;;5069518;28;20666;-82
2022/03/16 01:32:39;;;;;;;;;;;4.80;1.00;;;;;;5089694;28;19920;-81
2022/03/16 01:35:05;;;;;;;;;;;4.90;1.00;;;;;;5071396;28;19916;-82
2022/03/16 01:37:30;;;;;;;;;;;4.70;1.00;;;;;;5071128;28;20137;-83
2022/03/16 01:39:56;;;;;;;;;;;4.70;1.00;;;;;;5069254;28;19913;-82
2022/03/16 01:42:21;;;;;;;;;;;4.80;1.00;;;;;;5066078;28;19917;-82
2022/03/16 01:44:53;;;;;;;;;;;4.70;1.00;;;;;;5070825;28;19912;-82
2022/03/16 01:47:20;;;;;;;;;;;4.70;1.00;;;;;;5072587;28;19912;-83
2022/03/16 01:49:47;;;;;;;;;;;4.60;1.00;;;;;;5075729;28;19912;-82
2022/03/16 01:52:18;;;;;;;;;;;4.60;1.00;;;;;;5068528;28;19921;-82
2022/03/16 01:54:43;;;;;;;;;;;4.60;1.00;;;;;;5071289;28;19935;-82
2022/03/16 01:57:09;;;;;;;;;;;4.60;1.00;;;;;;5069948;28;19913;-81
2022/03/16 01:59:36;;;;;;;;;;;4.60;1.00;;;;;;5069329;28;19921;-82
2022/03/16 02:02:01;;;;;;;;;;;4.60;1.00;;;;;;5073331;28;19916;-82
2022/03/16 02:04:28;;;;;;;;;;;4.60;1.00;;;;;;5068244;28;20035;-82
2022/03/16 02:06:54;;;;;;;;;;;4.50;1.00;;;;;;5076407;28;20288;-82
2022/03/16 02:09:21;;;;;;;;;;;4.50;1.00;;;;;;5073212;28;19913;-82
2022/03/16 02:11:47;;;;;;;;;;;4.50;1.00;;;;;;5079884;28;19958;-82
2022/03/16 02:14:12;;;;;;;;;;;4.50;1.00;;;;;;5063973;28;19920;-82
2022/03/16 02:16:38;;;;;;;;;;;4.50;1.00;;;;;;5068983;28;19920;-82
2022/03/16 02:19:03;;;;;;;;;;;4.40;1.00;;;;;;5074594;28;20369;-82
2022/03/16 02:21:30;;;;;;;;;;;4.40;1.00;;;;;;5074481;28;20022;-82
2022/03/16 02:23:56;;;;;;;;;;;4.40;1.00;;;;;;5068585;28;19913;-81
2022/03/16 02:26:25;;;;;;;;;;;4.40;1.00;;;;;;5066390;28;19924;-82
2022/03/16 02:28:51;;;;;;;;;;;4.40;1.00;;;;;;5070513;28;19924;-82
2022/03/16 02:31:17;;;;;;;;;;;4.40;1.00;;;;;;5078763;28;19912;-83
2022/03/16 02:33:43;;;;;;;;;;;4.40;1.00;;;;;;5075559;28;20398;-81
2022/03/16 02:36:09;;;;;;;;;;;4.40;1.00;;;;;;5079247;28;20270;-81
2022/03/16 02:38:35;;;;;;;;;;;4.40;1.00;;;;;;5072865;28;19961;-82
2022/03/16 02:41:00;;;;;;;;;;;4.30;1.00;;;;;;5070013;28;21132;-82
2022/03/16 02:43:27;;;;;;;;;;;4.30;1.00;;;;;;5072971;28;20405;-82
2022/03/16 02:45:53;;;;;;;;;;;4.30;1.00;;;;;;5074633;28;19916;-82
2022/03/16 02:48:18;;;;;;;;;;;4.30;1.00;;;;;;5076462;28;20281;-82
2022/03/16 02:50:44;;;;;;;;;;;4.30;1.00;;;;;;5073530;28;19912;-82
2022/03/16 02:53:09;;;;;;;;;;;4.20;1.00;;;;;;5070089;28;19917;-81
2022/03/16 02:55:35;;;;;;;;;;;4.20;1.00;;;;;;5067483;28;20392;-82
2022/03/16 02:58:00;;;;;;;;;;;4.20;1.00;;;;;;5071771;28;19957;-83
2022/03/16 03:00:26;;;;;;;;;;;4.20;1.00;;;;;;5069449;28;19912;-82
2022/03/16 03:02:53;;;;;;;;;;;4.20;1.00;;;;;;5064548;28;19917;-82
2022/03/16 03:05:18;;;;;;;;;;;4.20;1.00;;;;;;5073200;28;19913;-82
2022/03/16 03:07:44;;;;;;;;;;;4.20;1.00;;;;;;5068519;28;20008;-81
2022/03/16 03:10:09;;;;;;;;;;;4.20;1.00;;;;;;5069522;28;19958;-82
2022/03/16 03:12:35;;;;;;;;;;;4.20;1.00;;;;;;5072288;28;19923;-81
2022/03/16 03:15:02;;;;;;;;;;;4.30;1.00;;;;;;5076448;28;19938;-81
2022/03/16 03:17:28;;;;;;;;;;;4.30;1.00;;;;;;5073252;28;19913;-81
2022/03/16 03:19:53;;;;;;;;;;;4.30;1.00;;;;;;5074943;28;19965;-82
2022/03/16 03:22:19;;;;;;;;;;;4.30;1.00;;;;;;5071290;28;20003;-81
2022/03/16 03:24:44;;;;;;;;;;;4.30;1.00;;;;;;5066337;28;19912;-82
2022/03/16 03:27:10;;;;;;;;;;;4.30;1.00;;;;;;5073967;28;19970;-81
2022/03/16 03:29:36;;;;;;;;;;;4.40;1.00;;;;;;5074908;28;19947;-81
2022/03/16 03:32:01;;;;;;;;;;;4.20;1.00;;;;;;5069850;28;19959;-81
2022/03/16 03:34:27;;;;;;;;;;;4.20;1.00;;;;;;5069720;28;20369;-82
2022/03/16 03:36:53;;;;;;;;;;;4.20;1.00;;;;;;5069218;28;20004;-82
2022/03/16 03:39:18;;;;;;;;;;;4.20;1.00;;;;;;5073295;28;19912;-82
2022/03/16 03:41:44;;;;;;;;;;;4.20;1.00;;;;;;5065037;28;19959;-82
2022/03/16 03:44:09;;;;;;;;;;;4.20;1.00;;;;;;5067801;28;19967;-81
2022/03/16 03:46:35;;;;;;;;;;;4.20;1.00;;;;;;5073240;28;19959;-82
2022/03/16 03:49:00;;;;;;;;;;;4.20;1.00;;;;;;5074515;28;19915;-82
2022/03/16 03:51:26;;;;;;;;;;;4.20;1.00;;;;;;5070152;28;19920;-82
2022/03/16 03:53:51;;;;;;;;;;;4.20;1.00;;;;;;5075802;28;19909;-81
2022/03/16 03:56:17;;;;;;;;;;;4.20;1.00;;;;;;5075386;28;20357;-82
2022/03/16 03:58:42;;;;;;;;;;;4.20;1.00;;;;;;5078333;28;19984;-82
2022/03/16 04:01:08;;;;;;;;;;;4.20;1.00;;;;;;5077608;28;20296;-82
2022/03/16 04:03:34;;;;;;;;;;;4.10;1.00;;;;;;5074202;28;20377;-83
2022/03/16 04:06:00;;;;;;;;;;;4.20;1.00;;;;;;5080492;28;19912;-82
2022/03/16 04:08:25;;;;;;;;;;;4.20;1.00;;;;;;5074251;28;19924;-82
2022/03/16 04:10:51;;;;;;;;;;;4.20;1.00;;;;;;5068778;28;19924;-82
2022/03/16 04:13:16;;;;;;;;;;;4.20;1.00;;;;;;5073895;28;19909;-81
2022/03/16 04:15:42;;;;;;;;;;;4.30;1.00;;;;;;5077272;28;19940;-83
2022/03/16 04:18:07;;;;;;;;;;;4.20;1.00;;;;;;5076252;28;19952;-82
2022/03/16 04:20:33;;;;;;;;;;;4.30;1.00;;;;;;5077979;28;19946;-83
2022/03/16 04:22:58;;;;;;;;;;;4.20;1.00;;;;;;5077716;28;19962;-82
2022/03/16 04:25:24;;;;;;;;;;;4.10;1.00;;;;;;5078322;28;19934;-83
2022/03/16 04:27:49;;;;;;;;;;;4.10;1.00;;;;;;5074198;28;19917;-83
2022/03/16 04:30:14;;;;;;;;;;;4.10;1.00;;;;;;5067027;28;19913;-82
2022/03/16 04:32:40;;;;;;;;;;;4.10;1.00;;;;;;5071775;28;19912;-80
2022/03/16 04:35:06;;;;;;;;;;;4.10;1.00;;;;;;5076011;28;19921;-80
2022/03/16 04:37:32;;;;;;;;;;;4.10;1.00;;;;;;5075062;28;19917;-80
2022/03/16 04:39:58;;;;;;;;;;;4.10;1.00;;;;;;5067028;28;19956;-82
2022/03/16 04:42:23;;;;;;;;;;;4.20;1.00;;;;;;5073883;28;19963;-82
2022/03/16 04:44:49;;;;;;;;;;;4.20;1.00;;;;;;5074531;28;19916;-81
2022/03/16 04:47:14;;;;;;;;;;;4.20;1.00;;;;;;5073544;28;20324;-81
2022/03/16 04:49:40;;;;;;;;;;;4.20;1.00;;;;;;5074761;28;19912;-81
2022/03/16 04:52:05;;;;;;;;;;;4.30;1.00;;;;;;5071246;28;19920;-81
2022/03/16 04:54:31;;;;;;;;;;;4.30;1.00;;;;;;5072252;28;20030;-81
2022/03/16 04:56:56;;;;;;;;;;;4.40;1.00;;;;;;5077532;28;20242;-82
2022/03/16 04:59:22;;;;;;;;;;;4.40;1.00;;;;;;5075713;28;19912;-81
2022/03/16 05:01:47;;;;;;;;;;;4.40;1.00;;;;;;5077910;28;19913;-82
2022/03/16 05:04:13;;;;;;;;;;;4.40;1.00;;;;;;5075535;28;19940;-82
2022/03/16 05:06:39;;;;;;;;;;;4.40;1.00;;;;;;5073533;28;19966;-82
2022/03/16 05:09:04;;;;;;;;;;;4.50;1.00;;;;;;5075959;28;19909;-82
2022/03/16 05:11:30;;;;;;;;;;;4.40;1.00;;;;;;5074141;28;19919;-82
2022/03/16 05:13:56;;;;;;;;;;;4.40;1.00;;;;;;5067504;28;19912;-81
2022/03/16 05:16:22;;;;;;;;;;;4.40;1.00;;;;;;5077409;28;19966;-82
2022/03/16 05:18:47;;;;;;;;;;;4.30;1.00;;;;;;5076886;28;19909;-81
2022/03/16 05:21:13;;;;;;;;;;;4.30;1.00;;;;;;5075519;28;20050;-82
2022/03/16 05:23:40;;;;;;;;;;;4.30;1.00;;;;;;5072718;28;19913;-82
2022/03/16 05:26:06;;;;;;;;;;;4.20;1.00;;;;;;5075387;28;20101;-81
2022/03/16 05:28:32;;;;;;;;;;;4.20;1.00;;;;;;5071015;28;19915;-82
2022/03/16 05:30:57;;;;;;;;;;;4.20;1.00;;;;;;5075239;28;19935;-81
2022/03/16 05:33:23;;;;;;;;;;;4.20;1.00;;;;;;5077853;28;19908;-82
2022/03/16 05:35:49;;;;;;;;;;;4.20;1.00;;;;;;5077057;28;19912;-82
2022/03/16 05:38:15;;;;;;;;;;;4.20;1.00;;;;;;5075868;28;20404;-82
2022/03/16 05:40:41;;;;;;;;;;;4.10;1.00;;;;;;5074248;28;19912;-82
2022/03/16 05:43:06;;;;;;;;;;;4.10;1.00;;;;;;5075760;28;19945;-82
2022/03/16 05:45:32;;;;;;;;;;;4.10;1.00;;;;;;5076499;28;19999;-82
2022/03/16 05:48:03;;;;;;;;;;;4.10;1.00;;;;;;5072900;28;19913;-81
2022/03/16 05:50:29;;;;;;;;;;;4.10;1.00;;;;;;5076990;28;19999;-81
2022/03/16 05:52:57;;;;;;;;;;;4.10;1.00;;;;;;5077558;28;19951;-82
2022/03/16 05:55:23;;;;;;;;;;;4.10;1.00;;;;;;5077110;28;20292;-81
2022/03/16 05:57:49;;;;;;;;;;;4.10;1.00;;;;;;5076010;28;19919;-81
2022/03/16 06:00:16;;;;;;;;;;;4.10;1.00;;;;;;5077448;28;19912;-82
2022/03/16 06:02:42;;;;;;;;;;;4.20;1.00;;;;;;5074996;28;19916;-82
2022/03/16 06:05:08;;;;;;;;;;;4.30;1.00;;;;;;5070242;28;19920;-82
2022/03/16 06:07:33;;;;;;;;;;;4.30;1.00;;;;;;5072660;28;20049;-82
2022/03/16 06:09:59;;;;;;;;;;;4.40;1.00;;;;;;5069396;28;20435;-81
2022/03/16 06:12:25;;;;;;;;;;;4.50;1.00;;;;;;5076366;28;19909;-82
2022/03/16 06:14:50;;;;;;;;;;;4.60;1.00;;;;;;5076230;28;19958;-82
2022/03/16 06:17:16;;;;;;;;;;;4.70;1.00;;;;;;5075964;28;19914;-82
2022/03/16 06:19:41;;;;;;;;;;;5.10;1.00;;;;;;5075935;28;19909;-82
2022/03/16 06:22:07;;;;;;;;;;;5.20;1.00;;;;;;5076706;28;20347;-82
2022/03/16 06:24:32;;;;;;;;;;;6.00;1.00;;;;;;5073934;28;19908;-82
2022/03/16 06:26:58;;;;;;;;;;;6.70;99.90;;;;;;5077645;28;19968;-83
2022/03/16 06:29:23;;;;;;;;;;;7.40;1.00;;;;;;5083414;28;19909;-83
2022/03/16 06:31:49;;;;;;;;;;;8.30;1.00;;;;;;5076521;28;19912;-82
2022/03/16 06:34:14;;;;;;;;;;;9.40;99.90;;;;;;5075919;28;20353;-82
2022/03/16 06:36:40;;;;;;;;;;;9.40;10.00;;;;;;5073992;28;19966;-81
2022/03/16 06:39:06;;;;;;;;;;;9.80;1.00;;;;;;5071444;28;20361;-81
2022/03/16 06:41:31;;;;;;;;;;;10.50;1.00;;;;;;5064739;28;19923;-81
2022/03/16 06:43:57;;;;;;;;;;;11.10;1.00;;;;;;5065027;28;19912;-81
2022/03/16 06:46:22;;;;;;;;;;;11.40;1.00;;;;;;5066132;28;20608;-81
2022/03/16 06:48:48;;;;;;;;;;;11.70;1.00;;;;;;5067549;28;19921;-81
2022/03/16 06:51:13;;;;;;;;;;;11.70;1.00;;;;;;5070430;28;20042;-81
2022/03/16 06:53:39;;;;;;;;;;;12.10;1.00;;;;;;5068818;28;19924;-82
2022/03/16 06:56:04;;;;;;;;;;;12.10;1.00;;;;;;5069277;28;19916;-81
2022/03/16 06:58:30;;;;;;;;;;;12.20;1.00;;;;;;5067839;28;19912;-81
2022/03/16 07:00:56;;;;;;;;;;;12.00;1.00;;;;;;5067317;28;19921;-82
2022/03/16 07:03:22;;;;;;;;;;;11.50;1.00;;;;;;5070807;28;19951;-80
2022/03/16 07:05:48;;;;;;;;;;;11.50;1.00;;;;;;5068567;28;19982;-80
2022/03/16 07:08:13;;;;;;;;;;;11.30;1.00;;;;;;5070434;28;19912;-80
2022/03/16 07:10:40;;;;;;;;;;;11.70;1.00;;;;;;5064618;28;19913;-82
2022/03/16 07:13:07;;;;;;;;;;;11.50;1.00;;;;;;5067635;28;20119;-80
2022/03/16 07:15:33;;;;;;;;;;;12.10;1.00;;;;;;5066819;28;19912;-81
2022/03/16 07:18:01;;;;;;;;;;;12.80;1.00;;;;;;5062157;28;19917;-80
2022/03/16 07:20:27;;;;;;;;;;;13.90;1.00;;;;;;5071983;28;20018;-81
2022/03/16 07:23:05;;;;;;;;;;;15.20;1.00;;;;;;5067284;28;19928;-81
2022/03/16 07:25:31;;;;;;;;;;;15.70;1.00;;;;;;5069165;28;19909;-81
2022/03/16 07:27:56;;;;;;;;;;;16.10;1.00;;;;;;5071172;28;19939;-81
2022/03/16 07:30:22;;;;;;;;;;;15.60;1.00;;;;;;5071560;28;19909;-81
2022/03/16 07:32:48;;;;;;;;;;;14.70;1.00;;;;;;5066481;28;19913;-81
2022/03/16 07:35:13;;;;;;;;;;;16.00;1.00;;;;;;5071400;28;19916;-81
2022/03/16 07:37:40;;;;;;;;;;;17.10;1.00;;;;;;5077928;28;20006;-82
2022/03/16 07:40:06;;;;;;;;;;;17.40;99.90;;;;;;5077185;28;19908;-79
2022/03/16 07:42:32;;;;;;;;;;;17.90;99.90;;;;;;5072269;28;19970;-81
2022/03/16 07:44:58;;;;;;;;;;;19.10;99.90;;;;;;5079273;28;19908;-80
2022/03/16 07:47:26;;;;;;;;;;;19.50;99.90;;;;;;5071755;28;19984;-79
2022/03/16 07:49:52;;;;;;;;;;;18.20;99.90;;;;;;5071628;28;19916;-81
2022/03/16 07:52:20;;;;;;;;;;;17.10;99.90;;;;;;5073633;28;19923;-79
2022/03/16 07:54:45;;;;;;;;;;;17.70;99.90;;;;;;5072886;28;19912;-79
2022/03/16 07:57:11;;;;;;;;;;;18.50;99.90;;;;;;5073022;28;19919;-79
2022/03/16 07:59:36;;;;;;;;;;;17.90;99.90;;;;;;5073756;28;19916;-79
2022/03/16 08:02:02;;;;;;;;;;;17.20;99.90;;;;;;5073293;28;19935;-79
2022/03/16 08:04:27;;;;;;;;;;;17.20;99.90;;;;;;5073750;28;19913;-80
2022/03/16 08:06:52;;;;;;;;;;;16.90;99.90;;;;;;5071126;28;19920;-79
2022/03/16 08:09:18;;;;;;;;;;;17.10;99.90;;;;;;5076275;28;19920;-79
2022/03/16 08:11:43;;;;;;;;;;;16.00;99.90;;;;;;5071985;28;20365;-80
2022/03/16 08:14:09;;;;;;;;;;;15.80;99.90;;;;;;5068949;28;19947;-79
2022/03/16 08:16:34;;;;;;;;;;;15.00;99.90;;;;;;5072860;28;20294;-79
2022/03/16 08:19:00;;;;;;;;;;;15.40;99.90;;;;;;5073832;28;19924;-79
2022/03/16 08:21:25;;;;;;;;;;;16.10;99.90;;;;;;5068500;28;19912;-79
2022/03/16 08:23:51;;;;;;;;;;;15.20;99.90;;;;;;5068848;28;19912;-79
2022/03/16 08:26:17;;;;;;;;;;;15.40;99.90;;;;;;5068705;28;19946;-78
2022/03/16 08:28:43;;;;;;;;;;;15.20;99.90;;;;;;5068876;28;19947;-79
2022/03/16 08:31:10;;;;;;;;;;;15.40;99.90;;;;;;5070874;28;19948;-79
2022/03/16 08:33:35;;;;;;;;;;;15.70;99.90;;;;;;5067294;28;19959;-79
2022/03/16 08:36:02;;;;;;;;;;;16.50;99.90;;;;;;5071045;28;19917;-80
2022/03/16 08:38:30;;;;;;;;;;;16.10;99.90;;;;;;5073360;28;19919;-80
2022/03/16 08:40:55;;;;;;;;;;;17.40;99.90;;;;;;5067331;28;20003;-80
2022/03/16 08:43:21;;;;;;;;;;;17.60;99.90;;;;;;5072606;28;19966;-80
2022/03/16 08:45:47;;;;;;;;;;;18.00;99.90;;;;;;5069179;28;20345;-79
2022/03/16 08:48:14;;;;;;;;;;;19.10;99.90;;;;;;5056122;28;19920;-80
2022/03/16 08:50:40;;;;;;;;;;;20.50;99.90;;;;;;5065843;28;19916;-79
2022/03/16 08:53:05;;;;;;;;;;;19.30;99.90;;;;;;5066896;28;19916;-79
2022/03/16 08:55:31;;;;;;;;;;;20.50;99.90;;;;;;5069420;28;19912;-80
2022/03/16 08:57:57;;;;;;;;;;;20.80;99.90;;;;;;5067137;28;19925;-79
2022/03/16 09:00:23;;;;;;;;;;;21.60;99.90;;;;;;5070448;28;19917;-79
2022/03/16 09:02:48;;;;;;;;;;;21.70;99.90;;;;;;5068149;28;19919;-79
2022/03/16 09:05:15;;;;;;;;;;;22.10;99.90;;;;;;5069056;28;19919;-80
2022/03/16 09:07:41;;;;;;;;;;;22.50;99.90;;;;;;5064172;28;19912;-80
2022/03/16 09:10:07;;;;;;;;;;;22.00;99.90;;;;;;5072435;28;19913;-79
2022/03/16 09:12:32;;;;;;;;;;;21.70;99.90;;;;;;5072183;28;20010;-80
2022/03/16 09:14:58;;;;;;;;;;;22.50;99.90;;;;;;5063109;28;19917;-79
2022/03/16 09:17:23;;;;;;;;;;;21.60;99.90;;;;;;5071876;28;19951;-79
2022/03/16 09:19:50;;;;;;;;;;;21.70;99.90;;;;;;5067373;28;19926;-79
2022/03/16 09:22:15;;;;;;;;;;;21.60;99.90;;;;;;5072927;28;19913;-79
2022/03/16 09:24:41;;;;;;;;;;;22.90;99.90;;;;;;5065135;28;20352;-79
2022/03/16 09:27:07;;;;;;;;;;;22.10;99.90;;;;;;5068894;28;19919;-79
2022/03/16 09:29:33;;;;;;;;;;;20.40;99.90;;;;;;5072982;28;19923;-79
2022/03/16 09:31:58;;;;;;;;;;;21.40;99.90;;;;;;5068639;28;19924;-78
2022/03/16 09:34:24;;;;;;;;;;;21.50;99.90;;;;;;5071144;28;19954;-79
2022/03/16 09:36:49;;;;;;;;;;;22.10;99.90;;;;;;5070127;28;20316;-80
2022/03/16 09:39:15;;;;;;;;;;;22.30;99.90;;;;;;5072511;28;19919;-79
2022/03/16 09:41:41;;;;;;;;;;;21.80;99.90;;;;;;5069962;28;19967;-79
2022/03/16 09:44:06;;;;;;;;;;;20.40;99.90;;;;;;5069095;28;20420;-79
2022/03/16 09:46:33;;;;;;;;;;;20.00;99.90;;;;;;5068698;28;19923;-79
2022/03/16 09:48:59;;;;;;;;;;;20.70;99.90;;;;;;5074268;28;19908;-80
2022/03/16 09:51:25;;;;;;;;;;;21.20;99.90;;;;;;5066042;28;19912;-79
2022/03/16 09:53:52;;;;;;;;;;;20.70;99.90;;;;;;5070311;28;19913;-79
2022/03/16 09:56:18;;;;;;;;;;;19.80;99.90;;;;;;5069524;28;19920;-79
2022/03/16 09:58:44;;;;;;;;;;;20.20;99.90;;;;;;5071408;28;20357;-79
2022/03/16 10:01:09;;;;;;;;;;;20.10;99.90;;;;;;5067670;28;19920;-80
2022/03/16 10:03:35;;;;;;;;;;;20.20;99.90;;;;;;5066815;28;19938;-80
2022/03/16 10:06:00;;;;;;;;;;;20.60;99.90;;;;;;5065783;28;19916;-80
2022/03/16 10:08:27;;;;;;;;;;;21.30;99.90;;;;;;5070522;28;19957;-80
2022/03/16 10:13:48;;;;;;;;;;;20.30;99.90;;;;;;5070129;28;19924;-80
2022/03/16 10:16:13;;;;;;;;;;;20.30;99.90;;;;;;5070636;28;19916;-80
2022/03/16 10:18:39;;;;;;;;;;;20.20;99.90;;;;;;5067463;28;20387;-80
2022/03/16 10:21:04;;;;;;;;;;;20.20;99.90;;;;;;5061901;28;19976;-80
2022/03/16 10:23:33;;;;;;;;;;;20.40;99.90;;;;;;5068919;28;19974;-80
2022/03/16 10:25:59;;;;;;;;;;;20.20;99.90;;;;;;5069232;28;19912;-80
2022/03/16 10:28:24;;;;;;;;;;;20.30;99.90;;;;;;5069343;28;19908;-79
2022/03/16 10:30:53;;;;;;;;;;;20.90;99.90;;;;;;5073102;28;19985;-79
2022/03/16 10:33:19;;;;;;;;;;;21.90;99.90;;;;;;5069312;28;19928;-79
2022/03/16 10:35:55;;;;;;;;;;;21.40;99.90;;;;;;5070629;28;19920;-78
2022/03/16 10:38:21;;;;;;;;;;;21.30;99.90;;;;;;5068624;28;19916;-78
2022/03/16 10:40:46;;;;;;;;;;;21.90;99.90;;;;;;5074523;28;19916;-78
2022/03/16 10:48:56;;;;;;;;;;;22.90;99.90;;;;;;5066701;28;19959;-79
2022/03/16 10:51:22;;;;;;;;;;;22.40;99.90;;;;;;5068424;28;19962;-79
2022/03/16 10:53:50;;;;;;;;;;;21.40;99.90;;;;;;5070211;28;19912;-79
2022/03/16 10:56:17;;;;;;;;;;;21.50;99.90;;;;;;5071116;28;19964;-78
2022/03/16 10:58:45;;;;;;;;;;;21.30;99.90;;;;;;5068563;28;19920;-79
2022/03/16 11:01:12;;;;;;;;;;;21.10;99.90;;;;;;5074620;28;19924;-79
2022/03/16 11:03:38;;;;;;;;;;;20.90;99.90;;;;;;5069855;28;19912;-79
2022/03/16 11:06:04;;;;;;;;;;;21.30;99.90;;;;;;5074326;28;20670;-79
2022/03/16 11:08:35;;;;;;;;;;;20.20;99.90;;;;;;5069899;28;19999;-79
2022/03/16 11:11:01;;;;;;;;;;;18.80;99.90;;;;;;5072638;28;19987;-79
2022/03/16 11:13:32;;;;;;;;;;;18.50;99.90;;;;;;5073434;28;19916;-79
2022/03/16 11:15:59;;;;;;;;;;;17.80;99.90;;;;;;5074218;28;19912;-78
2022/03/16 11:18:24;;;;;;;;;;;18.20;99.90;;;;;;5072378;28;19951;-79
2022/03/16 11:20:51;;;;;;;;;;;18.20;99.90;;;;;;5072146;28;20317;-79
2022/03/16 11:26:03;;;;;;;;;;;19.70;99.90;;;;;;5073370;28;19919;-79
2022/03/16 11:28:38;;;;;;;;;;;20.10;99.90;;;;;;5075517;28;20000;-79
2022/03/16 11:31:07;;;;;;;;;;;19.70;99.90;;;;;;5070260;28;19912;-79
2022/03/16 11:33:46;;;;;;;;;;;19.50;99.90;;;;;;5074427;28;19924;-79
2022/03/16 11:36:26;;;;;;;;;;;18.60;99.90;;;;;;5071590;28;19917;-79
2022/03/16 11:38:52;;;;;;;;;;;18.20;99.90;;;;;;5087667;28;20379;-79
2022/03/16 11:41:24;;;;;;;;;;;19.20;99.90;;;;;;5067975;28;19916;-79
2022/03/16 11:43:56;;;;;;;;;;;19.80;99.90;;;;;;5068891;28;19917;-79
2022/03/16 11:46:28;;;;;;;;;;;20.10;99.90;;;;;;5074060;28;19996;-79
2022/03/16 11:49:02;;;;;;;;;;;19.80;99.90;;;;;;5074531;28;19912;-79
2022/03/16 11:51:28;;;;;;;;;;;19.30;99.90;;;;;;5072425;28;20380;-79
2022/03/16 11:54:01;;;;;;;;;;;19.50;99.90;;;;;;5072339;28;19943;-79
2022/03/16 11:56:36;;;;;;;;;;;19.70;99.90;;;;;;5076218;28;20368;-79
2022/03/16 11:59:06;;;;;;;;;;;19.40;99.90;;;;;;5073987;28;19908;-79
2022/03/16 12:01:31;;;;;;;;;;;19.70;99.90;;;;;;5069496;28;20357;-80
2022/03/16 12:04:11;;;;;;;;;;;19.80;99.90;;;;;;5071114;28;19975;-80
2022/03/16 12:06:50;;;;;;;;;;;19.90;99.90;;;;;;5067771;28;19912;-80
2022/03/16 12:09:24;;;;;;;;;;;19.70;99.90;;;;;;5070899;28;19975;-80
2022/03/16 12:15:09;;;;;;;;;;;20.10;99.90;;;;;;5075282;28;20333;-80
2022/03/16 12:17:35;;;;;;;;;;;20.10;99.90;;;;;;5073919;28;19961;-80
2022/03/16 12:20:10;;;;;;;;;;;19.60;99.90;;;;;;5076614;28;20379;-80
2022/03/16 12:22:36;;;;;;;;;;;19.20;99.90;;;;;;5062686;28;19916;-78
2022/03/16 12:25:21;;;;;;;;;;;19.40;99.90;;;;;;5074759;28;19912;-79
2022/03/16 12:30:36;;;;;;;;;;;19.40;99.90;;;;;;5074714;28;19958;-80
2022/03/16 12:33:02;;;;;;;;;;;19.80;99.90;;;;;;5075448;28;19908;-80
2022/03/16 12:35:32;;;;;;;;;;;19.90;99.90;;;;;;5073913;28;19913;-80
2022/03/16 12:37:57;;;;;;;;;;;19.70;99.90;;;;;;5074769;28;19970;-80
2022/03/16 12:40:24;;;;;;;;;;;19.00;99.90;;;;;;5070698;28;19913;-79
2022/03/16 12:42:53;;;;;;;;;;;18.70;99.90;;;;;;5071618;28;20494;-80
2022/03/16 12:45:20;;;;;;;;;;;18.20;99.90;;;;;;5073117;28;19920;-79
2022/03/16 12:47:54;;;;;;;;;;;17.40;99.90;;;;;;5071196;28;19909;-80
2022/03/16 12:50:19;;;;;;;;;;;17.20;99.90;;;;;;5075189;28;19908;-79
2022/03/16 12:52:49;;;;;;;;;;;16.80;99.90;;;;;;5073077;28;20374;-79
2022/03/16 12:55:18;;;;;;;;;;;16.80;99.90;;;;;;5066427;28;19908;-79
2022/03/16 12:58:10;;;;;;;;;;;16.90;99.90;;;;;;5076132;28;19932;-79
2022/03/16 13:00:39;;;;;;;;;;;16.40;99.90;;;;;;5068930;28;19908;-78
2022/03/16 13:03:11;;;;;;;;;;;16.30;99.90;;;;;;5072775;28;20310;-78
2022/03/16 13:05:38;;;;;;;;;;;16.40;99.90;;;;;;5074253;28;19905;-79
2022/03/16 13:08:04;;;;;;;;;;;16.30;99.90;;;;;;5076211;28;19908;-78
2022/03/16 13:11:14;;;;;;;;;;;15.90;99.90;;;;;;5076073;28;20061;-78
2022/03/16 13:13:19;;;;;;;;;;;16.00;99.90;;;;;;5074752;28;19931;-79
2022/03/16 13:15:49;;;;;;;;;;;15.90;99.90;;;;;;5063858;28;19905;-79
2022/03/16 13:18:31;;;;;;;;;;;16.10;99.90;;;;;;5072388;28;19908;-79
2022/03/16 13:20:57;;;;;;;;;;;15.80;99.90;;;;;;5071152;28;19927;-78
2022/03/16 13:23:31;;;;;;;;;;;15.80;99.90;;;;;;5072578;28;20364;-78
2022/03/16 13:26:15;;;;;;;;;;;15.70;99.90;;;;;;5074263;28;19904;-79
2022/03/16 13:28:41;;;;;;;;;;;15.70;99.90;;;;;;5072077;28;19912;-79
2022/03/16 13:31:07;;;;;;;;;;;15.80;99.90;;;;;;5074935;28;19919;-79
2022/03/16 13:33:32;;;;;;;;;;;15.80;99.90;;;;;;5074198;28;20035;-79
2022/03/16 13:36:11;;;;;;;;;;;15.70;99.90;;;;;;5071878;28;20330;-78
2022/03/16 13:38:37;;;;;;;;;;;15.90;99.90;;;;;;5059632;28;20392;-79
2022/03/16 13:41:12;;;;;;;;;;;15.60;99.90;;;;;;5072773;28;19917;-78
2022/03/16 13:43:38;;;;;;;;;;;15.60;99.90;;;;;;5073568;28;19991;-78
2022/03/16 13:46:11;;;;;;;;;;;15.40;99.90;;;;;;5073376;28;19963;-78
2022/03/16 13:48:44;;;;;;;;;;;15.50;99.90;;;;;;5074129;28;19919;-79
2022/03/16 13:51:11;;;;;;;;;;;15.30;99.90;;;;;;5073175;28;19920;-79
2022/03/16 13:53:47;;;;;;;;;;;15.20;99.90;;;;;;5070048;28;19919;-79
2022/03/16 13:56:17;;;;;;;;;;;15.00;99.90;;;;;;5070342;28;19948;-79
2022/03/16 13:58:43;;;;;;;;;;;15.00;99.90;;;;;;5075912;28;19909;-79
2022/03/16 14:01:09;;;;;;;;;;;15.20;99.90;;;;;;5072591;28;19923;-79
2022/03/16 14:03:34;;;;;;;;;;;15.10;99.90;;;;;;5070296;28;19909;-79
2022/03/16 14:06:09;;;;;;;;;;;15.40;99.90;;;;;;5067785;28;19913;-78
2022/03/16 14:08:36;;;;;;;;;;;15.30;99.90;;;;;;5067716;28;20297;-79
2022/03/16 14:11:01;;;;;;;;;;;15.50;99.90;;;;;;5070393;28;19919;-80
2022/03/16 14:13:29;;;;;;;;;;;15.60;99.90;;;;;;5071643;28;19917;-79
2022/03/16 14:16:13;;;;;;;;;;;15.50;99.90;;;;;;5074254;28;19969;-79
2022/03/16 14:18:39;;;;;;;;;;;15.50;99.90;;;;;;5067487;28;19923;-79
2022/03/16 14:21:08;;;;;;;;;;;15.60;99.90;;;;;;5074721;28;20351;-79
2022/03/16 14:23:34;;;;;;;;;;;15.50;99.90;;;;;;5071757;28;20291;-79
2022/03/16 14:26:01;;;;;;;;;;;15.70;99.90;;;;;;5074591;28;19938;-79
2022/03/16 14:28:27;;;;;;;;;;;15.60;99.90;;;;;;5071290;28;19987;-79
2022/03/16 14:30:54;;;;;;;;;;;15.60;99.90;;;;;;5074773;28;19912;-79
2022/03/16 14:33:22;;;;;;;;;;;15.50;99.90;;;;;;5066051;28;19927;-78
2022/03/16 14:35:48;;;;;;;;;;;15.30;99.90;;;;;;5069326;28;19948;-79
2022/03/16 14:38:15;;;;;;;;;;;15.10;99.90;;;;;;5071477;28;19920;-80
2022/03/16 14:40:42;;;;;;;;;;;15.00;99.90;;;;;;5071489;28;19919;-79
2022/03/16 14:43:08;;;;;;;;;;;14.90;99.90;;;;;;5068839;28;20373;-79
2022/03/16 14:45:36;;;;;;;;;;;14.70;99.90;;;;;;5070441;28;20205;-79